Time;durP1;ratioP1;P1;durP2;ratioP2;P2;SDS_P1;SDS_P2;PMS_P1;PMS_P2;Temp;Humidity;BMP_temperature;BMP_pressure;BME280_temperature;BME280_humidity;BME280_pressure;Samples;Min_cycle;Max_cycle;Signal;HPM_P1;HPM_P2
2021/10/04 00:00:43;;;;;;;;;;;;;;;20.61;51.61;101716.59;4992947;28;987;-47
2021/10/04 00:03:08;;;;;;;;;;;;;;;20.67;51.30;101721.00;4998110;28;1144;-49
2021/10/04 00:05:34;;;;;;;;;;;;;;;20.76;50.87;101718.50;4990409;28;1117;-48
2021/10/04 00:08:00;;;;;;;;;;;;;;;20.58;51.42;101711.59;4997261;28;1188;-46
2021/10/04 00:10:25;;;;;;;;;;;;;;;20.66;51.27;101708.28;4998200;28;1160;-46
2021/10/04 00:12:51;;;;;;;;;;;;;;;20.76;50.85;101702.78;4997296;28;1198;-45
2021/10/04 00:15:17;;;;;;;;;;;;;;;20.61;51.55;101698.06;4990589;28;1965;-50
2021/10/04 00:17:42;;;;;;;;;;;;;;;20.45;51.91;101702.75;4998842;28;1136;-46
2021/10/04 00:20:08;;;;;;;;;;;;;;;20.70;51.18;101697.53;4997818;28;1113;-46
2021/10/04 00:22:33;;;;;;;;;;;;;;;20.27;52.40;101695.88;4998464;28;1195;-46
2021/10/04 00:24:59;;;;;;;;;;;;;;;20.44;51.92;101697.53;4998548;28;1151;-46
2021/10/04 00:27:24;;;;;;;;;;;;;;;20.54;51.53;101699.44;4992399;28;1109;-46
2021/10/04 00:29:50;;;;;;;;;;;;;;;20.38;51.90;101704.16;4982130;28;1117;-49
2021/10/04 00:32:15;;;;;;;;;;;;;;;20.27;52.13;101700.56;4996228;28;1193;-46
2021/10/04 00:34:40;;;;;;;;;;;;;;;20.14;52.54;101697.25;4997785;28;1981;-48
2021/10/04 00:37:06;;;;;;;;;;;;;;;20.20;52.58;101700.00;4997463;28;1199;-49
2021/10/04 00:39:32;;;;;;;;;;;;;;;20.13;52.53;101701.13;4998070;28;1116;-45
2021/10/04 00:41:58;;;;;;;;;;;;;;;20.13;52.41;101708.56;4998201;28;1132;-46
2021/10/04 00:44:23;;;;;;;;;;;;;;;20.18;52.37;101709.41;4993308;28;1250;-46
2021/10/04 00:46:50;;;;;;;;;;;;;;;20.33;52.00;101705.00;4989881;28;1207;-51
2021/10/04 00:49:15;;;;;;;;;;;;;;;20.17;52.45;101707.75;4997275;28;1187;-46
2021/10/04 00:51:41;;;;;;;;;;;;;;;20.34;52.01;101701.97;4998199;28;1160;-45
2021/10/04 00:54:06;;;;;;;;;;;;;;;20.09;52.50;101701.94;4997898;28;1983;-46
2021/10/04 00:56:32;;;;;;;;;;;;;;;20.20;52.37;101706.34;4997636;28;1152;-45
2021/10/04 00:58:57;;;;;;;;;;;;;;;20.25;52.08;101702.78;4988929;28;1203;-45
2021/10/04 01:01:28;;;;;;;;;;;;;;;20.34;52.07;101701.13;4997484;28;1093;-47
2021/10/04 01:03:54;;;;;;;;;;;;;;;20.35;52.00;101700.00;4997363;28;863;-45
2021/10/04 01:06:19;;;;;;;;;;;;;;;20.06;52.46;101697.78;4997284;28;1124;-45
2021/10/04 01:08:44;;;;;;;;;;;;;;;20.14;52.53;101697.25;4991563;28;1249;-45
2021/10/04 01:11:10;;;;;;;;;;;;;;;20.11;52.45;101696.97;4990004;28;1117;-46
2021/10/04 01:13:35;;;;;;;;;;;;;;;20.06;52.71;101694.22;4992899;28;1911;-45
2021/10/04 01:16:01;;;;;;;;;;;;;;;20.12;52.30;101693.94;4987401;28;988;-45
2021/10/04 01:18:26;;;;;;;;;;;;;;;20.01;52.91;101692.28;4983619;28;1212;-45
2021/10/04 01:20:52;;;;;;;;;;;;;;;20.21;52.23;101691.44;4989227;28;1187;-45
2021/10/04 01:23:17;;;;;;;;;;;;;;;20.12;52.67;101699.47;4991469;28;1069;-45
2021/10/04 01:25:42;;;;;;;;;;;;;;;20.06;52.67;101695.03;4997142;28;1125;-45
2021/10/04 01:28:08;;;;;;;;;;;;;;;20.12;52.76;101691.19;4997018;28;1227;-45
2021/10/04 01:30:33;;;;;;;;;;;;;;;20.11;52.70;101691.47;4986583;28;1377;-46
2021/10/04 01:32:59;;;;;;;;;;;;;;;19.88;53.09;101692.81;4996925;28;1125;-45
2021/10/04 01:35:24;;;;;;;;;;;;;;;20.08;52.66;101692.84;4995219;28;1987;-45
2021/10/04 01:37:50;;;;;;;;;;;;;;;20.18;52.33;101692.00;4985007;28;1223;-45
2021/10/04 01:40:15;;;;;;;;;;;;;;;19.98;52.78;101693.66;4997287;28;1212;-45
2021/10/04 01:42:41;;;;;;;;;;;;;;;20.08;52.61;101697.53;4996842;28;982;-49
2021/10/04 01:45:08;;;;;;;;;;;;;;;20.15;52.33;101698.09;4996867;28;1113;-49
2021/10/04 01:47:33;;;;;;;;;;;;;;;20.09;52.40;101697.25;4996611;28;1132;-45
2021/10/04 01:49:58;;;;;;;;;;;;;;;20.00;52.76;101696.97;4982469;28;1124;-46
2021/10/04 01:52:24;;;;;;;;;;;;;;;19.97;52.73;101692.00;4985363;28;1105;-45
2021/10/04 01:54:49;;;;;;;;;;;;;;;19.83;53.08;101690.88;4990187;28;1989;-45
2021/10/04 01:57:15;;;;;;;;;;;;;;;20.15;52.14;101693.38;4986212;28;1187;-46
2021/10/04 01:59:40;;;;;;;;;;;;;;;20.15;52.20;101689.81;4996534;28;1199;-46
2021/10/04 02:02:06;;;;;;;;;;;;;;;19.87;52.84;101691.16;4996688;28;1180;-45
2021/10/04 02:04:31;;;;;;;;;;;;;;;19.93;52.81;101688.13;4996655;28;1159;-45
2021/10/04 02:06:57;;;;;;;;;;;;;;;20.15;52.21;101679.59;4996222;28;1175;-46
2021/10/04 02:09:22;;;;;;;;;;;;;;;20.01;52.41;101686.75;4996353;28;1152;-46
2021/10/04 02:11:47;;;;;;;;;;;;;;;20.14;52.21;101691.72;4996397;28;1203;-46
2021/10/04 02:14:13;;;;;;;;;;;;;;;20.08;52.53;101681.78;4990618;28;1994;-46
2021/10/04 02:16:39;;;;;;;;;;;;;;;19.95;52.94;101694.22;4982829;28;1109;-47
2021/10/04 02:19:04;;;;;;;;;;;;;;;19.84;52.92;101698.06;4992701;28;1176;-46
2021/10/04 02:21:30;;;;;;;;;;;;;;;19.97;52.72;101699.47;4995720;28;1128;-47
2021/10/04 02:23:55;;;;;;;;;;;;;;;20.05;52.24;101698.91;4996283;28;1219;-46
2021/10/04 02:26:20;;;;;;;;;;;;;;;20.02;52.36;101693.94;4996113;28;1168;-45
2021/10/04 02:28:46;;;;;;;;;;;;;;;19.95;52.67;101701.66;4996379;28;1132;-46
2021/10/04 02:31:11;;;;;;;;;;;;;;;20.08;52.09;101697.53;4986159;28;967;-45
2021/10/04 02:33:36;;;;;;;;;;;;;;;20.02;52.47;101687.59;4996051;28;1898;-48
2021/10/04 02:36:02;;;;;;;;;;;;;;;19.97;52.54;101692.00;5000217;28;1093;-48
2021/10/04 02:38:27;;;;;;;;;;;;;;;19.76;53.06;101696.63;5000210;28;1128;-49
2021/10/04 02:40:53;;;;;;;;;;;;;;;19.93;52.60;101692.81;4999750;28;997;-48
2021/10/04 02:43:20;;;;;;;;;;;;;;;19.87;52.74;101693.94;4999996;28;1168;-47
2021/10/04 02:45:49;;;;;;;;;;;;;;;19.96;52.59;101693.13;4998273;28;1172;-49
2021/10/04 02:48:14;;;;;;;;;;;;;;;19.69;53.18;101696.06;5000349;28;1175;-47
2021/10/04 02:50:40;;;;;;;;;;;;;;;19.82;52.75;101690.06;5000508;28;1155;-48
2021/10/04 02:53:05;;;;;;;;;;;;;;;19.69;53.41;101700.75;5000125;28;1157;-47
2021/10/04 02:55:30;;;;;;;;;;;;;;;19.51;53.79;101702.91;4999568;28;1906;-48
2021/10/04 02:57:56;;;;;;;;;;;;;;;19.65;53.37;101704.03;4999672;28;1128;-47
2021/10/04 03:00:22;;;;;;;;;;;;;;;19.60;53.42;101703.19;4994519;28;968;-49
2021/10/04 03:02:47;;;;;;;;;;;;;;;19.72;53.10;101706.53;5000170;28;1120;-50
2021/10/04 03:05:13;;;;;;;;;;;;;;;19.78;52.65;101711.00;4986133;28;1164;-47
2021/10/04 03:07:38;;;;;;;;;;;;;;;19.70;53.06;101707.91;4999669;28;1077;-48
2021/10/04 03:10:04;;;;;;;;;;;;;;;19.74;53.08;101704.34;4999521;28;1117;-49
2021/10/04 03:12:29;;;;;;;;;;;;;;;19.78;52.77;101713.75;4999678;28;1129;-47
2021/10/04 03:14:55;;;;;;;;;;;;;;;19.61;53.43;101719.47;4991365;28;1902;-48
2021/10/04 03:17:20;;;;;;;;;;;;;;;19.85;52.86;101716.25;4992272;28;1240;-46
2021/10/04 03:19:45;;;;;;;;;;;;;;;19.59;53.38;101718.13;4993007;28;1085;-46
2021/10/04 03:22:11;;;;;;;;;;;;;;;19.70;53.11;101713.44;4995364;28;1216;-52
2021/10/04 03:24:36;;;;;;;;;;;;;;;19.74;52.72;101707.13;4999046;28;889;-50
2021/10/04 03:27:02;;;;;;;;;;;;;;;19.73;52.97;101713.72;4997145;28;1141;-50
2021/10/04 03:29:27;;;;;;;;;;;;;;;19.91;52.61;101709.66;4994255;28;1140;-47
2021/10/04 03:31:53;;;;;;;;;;;;;;;19.76;52.72;101707.66;4993518;28;1140;-47
2021/10/04 03:34:18;;;;;;;;;;;;;;;19.77;52.85;101708.50;4996248;28;1898;-47
2021/10/04 03:36:44;;;;;;;;;;;;;;;19.78;52.80;101711.00;4998380;28;1109;-49
2021/10/04 03:39:12;;;;;;;;;;;;;;;19.87;52.57;101710.50;4996965;28;1215;-48
2021/10/04 03:41:37;;;;;;;;;;;;;;;19.99;52.25;101706.38;4997105;28;1191;-51
2021/10/04 03:44:03;;;;;;;;;;;;;;;19.99;52.16;101706.38;4998009;28;1172;-48
2021/10/04 03:46:28;;;;;;;;;;;;;;;19.79;52.51;101707.13;4995545;28;1097;-47
2021/10/04 03:48:54;;;;;;;;;;;;;;;19.75;52.65;101696.91;4995319;28;1128;-48
2021/10/04 03:51:19;;;;;;;;;;;;;;;19.99;52.23;101700.00;4985305;28;1144;-47
2021/10/04 03:53:45;;;;;;;;;;;;;;;19.94;52.20;101698.06;4990184;28;1910;-48
2021/10/04 03:56:10;;;;;;;;;;;;;;;19.91;52.30;101697.78;4986475;28;1238;-47
2021/10/04 03:58:36;;;;;;;;;;;;;;;20.04;52.01;101691.72;4990682;28;991;-48
2021/10/04 04:01:02;;;;;;;;;;;;;;;19.94;52.21;101698.06;4992940;28;991;-48
2021/10/04 04:03:27;;;;;;;;;;;;;;;19.96;52.25;101704.16;4990558;28;1198;-49
2021/10/04 04:05:52;;;;;;;;;;;;;;;20.08;51.79;101695.59;4998420;28;1219;-47
2021/10/04 04:08:19;;;;;;;;;;;;;;;20.12;51.83;101705.00;4998662;28;1152;-47
2021/10/04 04:10:44;;;;;;;;;;;;;;;20.02;52.20;101699.47;4998787;28;1128;-48
2021/10/04 04:13:09;;;;;;;;;;;;;;;19.80;52.77;101703.28;4998160;28;1172;-48
2021/10/04 04:15:35;;;;;;;;;;;;;;;20.03;52.12;101705.81;4990610;28;1991;-47
2021/10/04 04:18:00;;;;;;;;;;;;;;;19.91;52.29;101714.34;4998487;28;1172;-48
2021/10/04 04:20:26;;;;;;;;;;;;;;;19.76;52.88;101712.38;4996303;28;1222;-49
2021/10/04 04:22:51;;;;;;;;;;;;;;;20.05;51.73;101714.63;4992365;28;970;-48
2021/10/04 04:25:16;;;;;;;;;;;;;;;20.05;51.71;101715.47;4998300;28;1148;-54
2021/10/04 04:27:42;;;;;;;;;;;;;;;19.97;51.71;101716.03;4997791;28;861;-51
2021/10/04 04:30:08;;;;;;;;;;;;;;;19.74;52.54;101725.59;4986330;28;1140;-52
2021/10/04 04:32:33;;;;;;;;;;;;;;;20.03;51.63;101731.47;4998170;28;1180;-49
2021/10/04 04:35:05;;;;;;;;;;;;;;;19.95;51.91;101732.84;4998230;28;1985;-52
2021/10/04 04:37:30;;;;;;;;;;;;;;;19.94;52.12;101742.22;4998122;28;1124;-47
2021/10/04 04:39:56;;;;;;;;;;;;;;;20.15;51.31;101742.28;4995905;28;1097;-50
2021/10/04 04:42:21;;;;;;;;;;;;;;;19.82;52.07;101739.75;4996983;28;989;-61
2021/10/04 04:44:47;;;;;;;;;;;;;;;19.92;52.09;101738.09;4996547;28;1125;-58
2021/10/04 04:47:12;;;;;;;;;;;;;;;19.89;52.24;101738.63;4992419;28;1429;-58
2021/10/04 04:49:37;;;;;;;;;;;;;;;19.83;52.30;101741.38;4981332;28;1252;-59
2021/10/04 04:52:03;;;;;;;;;;;;;;;20.05;51.92;101745.84;4997629;28;1109;-59
2021/10/04 04:54:28;;;;;;;;;;;;;;;19.87;52.01;101738.91;4983840;28;1906;-56
2021/10/04 04:56:54;;;;;;;;;;;;;;;19.78;52.30;101740.50;4990395;28;1124;-59
2021/10/04 04:59:20;;;;;;;;;;;;;;;20.08;51.78;101748.06;4988163;28;1431;-56
2021/10/04 05:01:45;;;;;;;;;;;;;;;20.02;51.58;101746.41;4993229;28;1100;-53
2021/10/04 05:04:11;;;;;;;;;;;;;;;19.94;52.00;101735.91;4978302;28;1190;-49
2021/10/04 05:06:36;;;;;;;;;;;;;;;19.87;52.07;101740.84;4991479;28;1180;-53
2021/10/04 05:09:02;;;;;;;;;;;;;;;19.90;51.97;101745.81;4986797;28;1188;-55
2021/10/04 05:11:27;;;;;;;;;;;;;;;20.07;51.70;101742.81;4996818;28;1129;-52
2021/10/04 05:13:53;;;;;;;;;;;;;;;19.96;51.79;101750.25;4997145;28;1902;-49
2021/10/04 05:16:18;;;;;;;;;;;;;;;19.98;51.63;101750.81;4997167;28;1089;-52
2021/10/04 05:18:44;;;;;;;;;;;;;;;20.00;51.74;101746.66;4996669;28;1144;-52
2021/10/04 05:21:09;;;;;;;;;;;;;;;19.93;51.81;101745.28;4986467;28;1195;-56
2021/10/04 05:23:35;;;;;;;;;;;;;;;20.04;51.80;101754.41;4992879;28;1068;-55
2021/10/04 05:26:00;;;;;;;;;;;;;;;20.11;51.36;101753.03;4990667;28;1204;-54
2021/10/04 05:28:26;;;;;;;;;;;;;;;20.21;51.21;101749.44;4992656;28;977;-52
2021/10/04 05:30:51;;;;;;;;;;;;;;;20.08;51.39;101759.09;4993163;28;929;-55
2021/10/04 05:33:16;;;;;;;;;;;;;;;20.10;51.56;101762.41;4992064;28;1265;-58
2021/10/04 05:35:42;;;;;;;;;;;;;;;19.99;51.58;101755.22;4987388;28;1910;-50
2021/10/04 05:38:08;;;;;;;;;;;;;;;20.15;51.19;101767.94;4988884;28;1278;-51
2021/10/04 05:40:34;;;;;;;;;;;;;;;20.21;51.03;101770.72;4988649;28;1097;-50
2021/10/04 05:42:59;;;;;;;;;;;;;;;20.10;51.40;101764.34;4987682;28;1133;-54
2021/10/04 05:45:25;;;;;;;;;;;;;;;20.06;51.70;101764.06;4991505;28;1192;-52
2021/10/04 05:47:50;;;;;;;;;;;;;;;20.20;51.09;101771.81;4996296;28;1224;-53
2021/10/04 05:50:15;;;;;;;;;;;;;;;20.44;50.54;101774.88;4996439;28;1136;-60
2021/10/04 05:52:42;;;;;;;;;;;;;;;20.18;51.17;101770.16;4995836;28;1085;-51
2021/10/04 05:55:08;;;;;;;;;;;;;;;20.13;51.53;101767.41;4996629;28;1907;-50
2021/10/04 05:57:34;;;;;;;;;;;;;;;19.95;51.74;101771.50;4995955;28;891;-56
2021/10/04 05:59:59;;;;;;;;;;;;;;;19.97;51.79;101774.00;4991451;28;1232;-54
2021/10/04 06:02:24;;;;;;;;;;;;;;;20.31;50.82;101779.84;4996144;28;1046;-56
2021/10/04 06:04:50;;;;;;;;;;;;;;;20.16;51.27;101783.41;4987629;28;1137;-54
2021/10/04 06:07:15;;;;;;;;;;;;;;;20.28;50.82;101787.84;4996331;28;1136;-56
2021/10/04 06:09:41;;;;;;;;;;;;;;;20.14;51.35;101785.59;4991126;28;1168;-53
2021/10/04 06:12:06;;;;;;;;;;;;;;;20.19;51.21;101782.03;4995828;28;1215;-53
2021/10/04 06:14:32;;;;;;;;;;;;;;;20.39;50.58;101797.81;4989982;28;1973;-56
2021/10/04 06:17:00;;;;;;;;;;;;;;;20.21;51.40;101787.28;4990682;28;1130;-59
2021/10/04 06:19:25;;;;;;;;;;;;;;;20.28;51.18;101785.91;4986431;28;1108;-60
2021/10/04 06:21:51;;;;;;;;;;;;;;;20.35;50.90;101791.16;4994940;28;1108;-55
2021/10/04 06:24:16;;;;;;;;;;;;;;;20.26;50.98;101788.13;4987839;28;1124;-55
2021/10/04 06:26:42;;;;;;;;;;;;;;;20.36;50.91;101787.31;4990395;28;1140;-57
2021/10/04 06:29:07;;;;;;;;;;;;;;;20.49;50.53;101789.50;4992855;28;1073;-57
2021/10/04 06:31:33;;;;;;;;;;;;;;;20.46;50.58;101784.53;4989479;28;1196;-60
2021/10/04 06:33:58;;;;;;;;;;;;;;;20.34;50.96;101783.97;4992058;28;1973;-60
2021/10/04 06:36:23;;;;;;;;;;;;;;;20.21;51.28;101779.00;4995091;28;1215;-61
2021/10/04 06:38:49;;;;;;;;;;;;;;;20.45;50.52;101785.63;4982979;28;1117;-61
2021/10/04 06:41:14;;;;;;;;;;;;;;;20.43;50.81;101787.88;4988440;28;1097;-62
2021/10/04 06:43:40;;;;;;;;;;;;;;;20.46;50.63;101792.84;4985043;28;1293;-61
2021/10/04 06:46:07;;;;;;;;;;;;;;;20.45;50.67;101790.34;4991440;28;1085;-61
2021/10/04 06:48:36;;;;;;;;;;;;;;;20.34;50.98;101783.97;4995690;28;927;-61
2021/10/04 06:51:01;;;;;;;;;;;;;;;20.43;50.71;101782.34;4994059;28;1597;-57
2021/10/04 06:53:27;;;;;;;;;;;;;;;20.48;50.57;101779.59;4995733;28;950;-64
2021/10/04 06:55:52;;;;;;;;;;;;;;;20.48;50.58;101790.63;4994979;28;1910;-63
2021/10/04 06:58:18;;;;;;;;;;;;;;;20.31;50.94;101787.28;4991312;28;1105;-60
2021/10/04 07:00:43;;;;;;;;;;;;;;;20.63;50.29;101791.75;4991699;28;1510;-61
2021/10/04 07:03:09;;;;;;;;;;;;;;;20.48;50.42;101793.41;4982129;28;986;-61
2021/10/04 07:05:34;;;;;;;;;;;;;;;20.17;51.88;101779.56;4987705;28;1180;-58
2021/10/04 07:08:00;;;;;;;;;;;;;;;20.38;51.43;101784.28;4994726;28;1128;-61
2021/10/04 07:10:25;;;;;;;;;;;;;;;20.59;50.79;101785.09;4995874;28;1128;-60
2021/10/04 07:12:51;;;;;;;;;;;;;;;20.52;50.76;101788.97;4994829;28;1116;-55
2021/10/04 07:15:17;;;;;;;;;;;;;;;20.69;50.50;101787.88;4983065;28;1899;-57
2021/10/04 07:17:42;;;;;;;;;;;;;;;20.66;50.28;101791.19;4992007;28;1150;-58
2021/10/04 07:20:08;;;;;;;;;;;;;;;20.58;50.65;101789.81;4996546;28;1204;-59
2021/10/04 07:22:33;;;;;;;;;;;;;;;20.46;50.86;101787.31;4999515;28;1222;-56
2021/10/04 07:24:59;;;;;;;;;;;;;;;20.64;50.61;101783.16;4996228;28;1168;-54
2021/10/04 07:27:24;;;;;;;;;;;;;;;20.61;50.56;101783.72;4988510;28;1136;-54
2021/10/04 07:29:50;;;;;;;;;;;;;;;20.65;50.46;101789.50;4998285;28;847;-52
2021/10/04 07:32:15;;;;;;;;;;;;;;;20.58;50.66;101783.44;4998994;28;1116;-55
2021/10/04 07:34:40;;;;;;;;;;;;;;;20.73;50.16;101783.47;4993865;28;1963;-50
2021/10/04 07:37:06;;;;;;;;;;;;;;;20.74;50.11;101787.91;4996466;28;1073;-55
2021/10/04 07:39:31;;;;;;;;;;;;;;;20.93;49.71;101790.09;4989848;28;1105;-54
2021/10/04 07:41:57;;;;;;;;;;;;;;;20.72;50.32;101789.28;4993502;28;1085;-55
2021/10/04 07:44:23;;;;;;;;;;;;;;;20.92;49.71;101799.50;4990431;28;1132;-54
2021/10/04 07:46:49;;;;;;;;;;;;;;;20.81;50.17;101801.44;4997583;28;1382;-52
2021/10/04 07:49:14;;;;;;;;;;;;;;;20.97;49.50;101799.47;4998964;28;1238;-56
2021/10/04 07:51:40;;;;;;;;;;;;;;;20.87;49.91;101796.72;4992214;28;1133;-58
2021/10/04 07:54:05;;;;;;;;;;;;;;;20.81;49.90;101805.03;4990171;28;1981;-57
2021/10/04 07:56:31;;;;;;;;;;;;;;;20.45;50.97;101804.16;4998624;28;1164;-55
2021/10/04 07:58:57;;;;;;;;;;;;;;;20.22;51.55;101803.59;4994112;28;1389;-59
2021/10/04 08:01:22;;;;;;;;;;;;;;;19.74;52.32;101803.69;4992882;28;1276;-54
2021/10/04 08:03:48;;;;;;;;;;;;;;;19.68;52.29;101807.53;4993293;28;1054;-50
2021/10/04 08:06:13;;;;;;;;;;;;;;;19.33;52.31;101809.00;4985080;28;1128;-53
2021/10/04 08:08:39;;;;;;;;;;;;;;;19.00;52.56;101816.53;4997624;28;1128;-55
2021/10/04 08:11:04;;;;;;;;;;;;;;;18.92;52.37;101808.75;4997254;28;1015;-49
2021/10/04 08:13:30;;;;;;;;;;;;;;;19.09;53.27;101809.41;4994195;28;1148;-57
2021/10/04 08:15:55;;;;;;;;;;;;;;;19.88;52.94;101809.59;4981213;28;1973;-58
2021/10/04 08:18:21;;;;;;;;;;;;;;;20.28;51.89;101816.28;4995786;28;1172;-58
2021/10/04 08:20:46;;;;;;;;;;;;;;;20.50;51.35;101806.94;4982352;28;895;-58
2021/10/04 08:23:13;;;;;;;;;;;;;;;20.85;49.95;101817.19;4983186;28;1160;-55
2021/10/04 08:25:38;;;;;;;;;;;;;;;21.04;49.54;101813.84;4992674;28;1160;-54
2021/10/04 08:28:04;;;;;;;;;;;;;;;20.99;49.64;101811.09;4981390;28;1132;-54
2021/10/04 08:30:31;;;;;;;;;;;;;;;21.10;49.27;101817.44;4997411;28;1200;-54
2021/10/04 08:32:56;;;;;;;;;;;;;;;21.07;49.38;101813.31;4993561;28;1081;-53
2021/10/04 08:35:22;;;;;;;;;;;;;;;20.20;51.14;101808.53;4985388;28;1976;-56
2021/10/04 08:37:48;;;;;;;;;;;;;;;19.71;51.56;101804.22;4988880;28;1116;-55
2021/10/04 08:40:15;;;;;;;;;;;;;;;19.17;51.14;101799.81;4996782;28;1280;-56
2021/10/04 08:42:41;;;;;;;;;;;;;;;19.12;49.87;101808.06;4986198;28;1137;-54
2021/10/04 08:45:07;;;;;;;;;;;;;;;18.76;50.14;101803.09;4989066;28;1109;-57
2021/10/04 08:47:36;;;;;;;;;;;;;;;18.90;52.19;101799.91;4997720;28;1212;-57
2021/10/04 08:50:03;;;;;;;;;;;;;;;19.40;53.44;101815.13;4984429;28;1114;-56
2021/10/04 08:52:28;;;;;;;;;;;;;;;19.83;53.44;101804.84;4985573;28;1109;-59
2021/10/04 08:54:54;;;;;;;;;;;;;;;20.14;52.55;101796.66;4990567;28;1906;-59
2021/10/04 08:57:19;;;;;;;;;;;;;;;20.42;51.96;101796.44;4987490;28;1121;-60
2021/10/04 08:59:44;;;;;;;;;;;;;;;20.71;50.93;101805.03;4996659;28;916;-60
2021/10/04 09:02:30;;;;;;;;;;;;;;;20.78;50.82;101793.72;4989367;28;1125;-58
2021/10/04 09:05:14;;;;;;;;;;;;;;;20.89;50.44;101784.28;4994368;28;1156;-59
2021/10/04 09:07:40;;;;;;;;;;;;;;;20.89;50.25;101784.28;4995475;28;1359;-60
2021/10/04 09:10:06;;;;;;;;;;;;;;;21.02;50.03;101775.41;4994685;28;1152;-61
2021/10/04 09:12:39;;;;;;;;;;;;;;;20.87;50.34;101763.56;4996533;28;1052;-45
2021/10/04 09:15:19;;;;;;;;;;;;;;;20.16;51.92;101775.13;4989546;28;1987;-49
2021/10/04 09:17:45;;;;;;;;;;;;;;;19.87;51.92;101773.97;4986526;28;1102;-44
2021/10/04 09:20:10;;;;;;;;;;;;;;;19.53;51.64;101772.44;4986979;28;1093;-45
2021/10/04 09:22:36;;;;;;;;;;;;;;;18.99;51.68;101776.28;4984791;28;1096;-45
2021/10/04 09:25:03;;;;;;;;;;;;;;;18.91;51.19;101774.84;4996442;28;939;-44
2021/10/04 09:27:31;;;;;;;;;;;;;;;19.00;52.55;101772.44;4996489;28;1116;-44
2021/10/04 09:29:56;;;;;;;;;;;;;;;19.31;53.65;101772.63;4988912;28;1451;-44
2021/10/04 09:32:27;;;;;;;;;;;;;;;19.76;53.42;101768.38;4991476;28;1219;-46
2021/10/04 09:35:09;;;;;;;;;;;;;;;20.22;52.57;101764.91;4986406;28;2319;-45
2021/10/04 09:37:34;;;;;;;;;;;;;;;20.30;52.05;101772.66;4983831;28;1109;-44
2021/10/04 09:40:00;;;;;;;;;;;;;;;20.47;51.52;101758.59;4994266;28;1526;-43
2021/10/04 09:42:25;;;;;;;;;;;;;;;20.74;50.79;101751.97;4991435;28;1128;-42
2021/10/04 09:44:55;;;;;;;;;;;;;;;20.73;50.94;101755.00;4987640;28;1124;-45
2021/10/04 09:47:21;;;;;;;;;;;;;;;20.90;50.41;101751.94;4995378;28;1250;-50
2021/10/04 09:49:50;;;;;;;;;;;;;;;21.00;49.97;101754.69;4986090;28;1006;-57
2021/10/04 09:52:16;;;;;;;;;;;;;;;20.78;50.52;101747.53;4996689;28;1487;-55
2021/10/04 09:54:44;;;;;;;;;;;;;;;20.11;51.91;101754.97;4981352;28;1914;-54
2021/10/04 09:57:16;;;;;;;;;;;;;;;19.52;52.16;101748.72;4996013;28;1215;-53
2021/10/04 09:59:42;;;;;;;;;;;;;;;19.37;51.22;101748.66;4987506;28;1211;-54
2021/10/04 10:02:08;;;;;;;;;;;;;;;18.84;50.97;101741.13;4996287;28;1030;-54
2021/10/04 10:04:34;;;;;;;;;;;;;;;18.74;51.79;101741.91;4981496;28;1234;-52
2021/10/04 10:07:00;;;;;;;;;;;;;;;19.27;53.38;101739.22;4995638;28;1104;-51
2021/10/04 10:09:25;;;;;;;;;;;;;;;19.71;53.51;101740.75;4996136;28;1152;-54
2021/10/04 10:11:51;;;;;;;;;;;;;;;20.09;52.92;101735.91;4994962;28;1245;-53
2021/10/04 10:14:16;;;;;;;;;;;;;;;20.50;51.74;101737.88;4989610;28;1986;-53
2021/10/04 10:16:42;;;;;;;;;;;;;;;20.57;51.45;101732.88;4993006;28;1045;-52
2021/10/04 10:19:09;;;;;;;;;;;;;;;20.71;51.08;101729.59;4996229;28;1144;-52
2021/10/04 10:21:35;;;;;;;;;;;;;;;20.71;50.73;101732.38;4994665;28;1257;-54
2021/10/04 10:24:04;;;;;;;;;;;;;;;20.79;50.59;101738.16;4995981;28;1010;-54
2021/10/04 10:26:48;;;;;;;;;;;;;;;20.85;50.31;101733.44;4996040;28;1191;-53
2021/10/04 10:29:17;;;;;;;;;;;;;;;20.90;50.37;101729.81;4986487;28;939;-55
2021/10/04 10:31:51;;;;;;;;;;;;;;;21.09;49.60;101733.66;4990032;28;1149;-54
2021/10/04 10:34:29;;;;;;;;;;;;;;;20.67;50.89;101729.28;4983505;28;1911;-55
2021/10/04 10:36:58;;;;;;;;;;;;;;;20.07;51.23;101718.78;4995934;28;1109;-55
2021/10/04 10:39:43;;;;;;;;;;;;;;;19.46;51.71;101709.25;4996088;28;1160;-55
2021/10/04 10:42:10;;;;;;;;;;;;;;;19.13;51.55;101719.56;4995700;28;935;-54
2021/10/04 10:44:51;;;;;;;;;;;;;;;18.84;51.91;101716.34;4993881;28;949;-54
2021/10/04 10:47:16;;;;;;;;;;;;;;;19.03;52.96;101714.00;4994785;28;1222;-54
2021/10/04 10:49:57;;;;;;;;;;;;;;;19.34;53.63;101719.66;4980564;28;1436;-56
2021/10/04 10:52:23;;;;;;;;;;;;;;;19.80;53.59;101714.31;4996268;28;1136;-56
2021/10/04 10:54:52;;;;;;;;;;;;;;;20.20;52.36;101711.06;4995624;28;1989;-56
2021/10/04 10:57:17;;;;;;;;;;;;;;;20.30;51.98;101708.28;4998450;28;1134;-58
2021/10/04 10:59:43;;;;;;;;;;;;;;;20.38;51.51;101702.22;4998692;28;994;-58
2021/10/04 11:02:28;;;;;;;;;;;;;;;20.41;51.42;101698.94;5000296;28;1121;-58
2021/10/04 11:04:53;;;;;;;;;;;;;;;20.57;51.09;101693.38;4997999;28;1716;-58
2021/10/04 11:07:42;;;;;;;;;;;;;;;20.69;50.76;101688.41;4998887;28;905;-59
2021/10/04 11:10:08;;;;;;;;;;;;;;;20.71;50.57;101686.19;4991370;28;1318;-59
2021/10/04 11:12:52;;;;;;;;;;;;;;;20.80;50.37;101691.97;5007333;28;1314;-58
2021/10/04 11:15:28;;;;;;;;;;;;;;;20.75;50.38;101684.53;5001556;28;1914;-58
2021/10/04 11:17:54;;;;;;;;;;;;;;;20.75;50.39;101687.28;4999055;28;1175;-58
2021/10/04 11:20:19;;;;;;;;;;;;;;;20.62;50.56;101685.06;4998904;28;1143;-59
2021/10/04 11:22:45;;;;;;;;;;;;;;;19.81;52.28;101682.88;4997821;28;1164;-66
2021/10/04 11:25:10;;;;;;;;;;;;;;;19.79;51.44;101685.06;4999233;28;1164;-64
2021/10/04 11:27:46;;;;;;;;;;;;;;;19.15;51.83;101687.06;4998771;28;1219;-65
2021/10/04 11:30:12;;;;;;;;;;;;;;;19.08;50.90;101680.97;4999002;28;1132;-63
2021/10/04 11:32:37;;;;;;;;;;;;;;;18.79;50.66;101680.50;4993051;28;937;-64
2021/10/04 11:35:15;;;;;;;;;;;;;;;19.20;51.50;101682.66;4999085;28;1906;-67
2021/10/04 11:37:40;;;;;;;;;;;;;;;19.76;52.75;101685.59;4985215;28;1137;-65
2021/10/04 11:40:06;;;;;;;;;;;;;;;19.89;53.35;101683.44;4997354;28;1238;-66
2021/10/04 11:42:32;;;;;;;;;;;;;;;20.16;52.55;101680.41;4998432;28;1196;-65
2021/10/04 11:45:00;;;;;;;;;;;;;;;20.24;52.29;101690.91;4996389;28;980;-60
2021/10/04 11:47:26;;;;;;;;;;;;;;;20.54;51.47;101671.81;4997895;28;1053;-61
2021/10/04 11:49:53;;;;;;;;;;;;;;;20.78;50.70;101675.66;4998278;28;1148;-60
2021/10/04 11:52:19;;;;;;;;;;;;;;;20.73;50.83;101672.91;4998817;28;1121;-60
2021/10/04 11:54:51;;;;;;;;;;;;;;;20.92;50.22;101675.09;4998518;28;1914;-60
2021/10/04 11:57:19;;;;;;;;;;;;;;;20.96;50.18;101676.19;4998506;28;1105;-60
2021/10/04 11:59:48;;;;;;;;;;;;;;;21.01;49.90;101665.94;4989445;28;1100;-61
2021/10/04 12:02:24;;;;;;;;;;;;;;;20.37;51.19;101670.19;4997751;28;1514;-62
2021/10/04 12:04:50;;;;;;;;;;;;;;;20.00;51.21;101666.59;4998527;28;1212;-61
2021/10/04 12:07:16;;;;;;;;;;;;;;;19.52;51.04;101657.69;4988946;28;1009;-64
2021/10/04 12:09:41;;;;;;;;;;;;;;;19.19;50.46;101665.28;4991021;28;1192;-63
2021/10/04 12:12:07;;;;;;;;;;;;;;;18.81;50.62;101662.59;4986890;28;1148;-61
2021/10/04 12:14:33;;;;;;;;;;;;;;;18.83;51.26;101655.97;4995039;28;1943;-60
2021/10/04 12:17:00;;;;;;;;;;;;;;;19.06;53.57;101649.25;4981606;28;1180;-60
2021/10/04 12:19:25;;;;;;;;;;;;;;;19.72;53.18;101665.16;4979343;28;1124;-60
2021/10/04 12:21:51;;;;;;;;;;;;;;;19.99;53.32;101664.09;4993143;28;1109;-60
2021/10/04 12:24:16;;;;;;;;;;;;;;;20.34;52.25;101657.75;4995182;28;915;-60
2021/10/04 12:27:02;;;;;;;;;;;;;;;20.58;51.24;101657.19;4988723;28;1121;-60
2021/10/04 12:29:31;;;;;;;;;;;;;;;20.72;51.03;101665.75;4991970;28;1266;-61
2021/10/04 12:31:57;;;;;;;;;;;;;;;20.78;50.79;101656.31;4996333;28;1167;-60
2021/10/04 12:34:26;;;;;;;;;;;;;;;20.93;50.17;101660.13;4978906;28;1973;-60
2021/10/04 12:36:51;;;;;;;;;;;;;;;20.85;50.46;101656.84;4980312;28;966;-60
2021/10/04 12:39:17;;;;;;;;;;;;;;;20.98;50.11;101665.66;4997695;28;1271;-61
2021/10/04 12:41:44;;;;;;;;;;;;;;;20.95;49.81;101666.22;4986108;28;1208;-61
2021/10/04 12:44:09;;;;;;;;;;;;;;;20.20;50.95;101661.34;4980500;28;1088;-61